weather.gov     
National Weather Service

Terminal Aerodrome Forecast
NWS Homepage
This page is being discontinued on March 12, 2014.
The same data is available at this site. Please update your bookmarks.
Thank you, and we apologize for the inconvenience.
Please send an email to SR-SRH.Webmaster@noaa.gov with any concerns.


Current Version
Previous Version:    01  02  03  04  05  06  07  08  09  10  11  12  13  14  15  16  17  18  19  20  21  22  23  24  25  26  27  28  29  30  
   31  32  33  34  35  36  37  38  39  40  41  42  43  44  45  46  47  48  49  
[Printable]
549
FTUS43 KMKX 291731
TAFMKE
TAF
KMKE 291731Z 2918/3024 18013KT P6SM SCT070 BKN150
      TEMPO 2918/2921 3SM -TSRA BKN050CB
     FM300300 18011KT P6SM SCT070 BKN120
     FM300500 19009KT 6SM -TSRA BR SCT020 BKN090CB
     FM301200 20009KT 5SM -TSRA BR OVC020CB
     FM301500 22010KT 6SM -SHRA OVC018
     FM301700 22010KT P6SM VCSH BKN025
     FM302100 24009KT P6SM VCTS BKN050CB=


549
FTUS43 KMKX 291731
TAFMKE
TAF
KMKE 291731Z 2918/3024 18013KT P6SM SCT070 BKN150
      TEMPO 2918/2921 3SM -TSRA BKN050CB
     FM300300 18011KT P6SM SCT070 BKN120
     FM300500 19009KT 6SM -TSRA BR SCT020 BKN090CB
     FM301200 20009KT 5SM -TSRA BR OVC020CB
     FM301500 22010KT 6SM -SHRA OVC018
     FM301700 22010KT P6SM VCSH BKN025
     FM302100 24009KT P6SM VCTS BKN050CB=




U.S. Dept. of Commerce
NOAA National Weather Service
1325 East West Highway
Silver Spring, MD 20910
E-mail: w-nws.webmaster@noaa.gov
Page last modified: May 16, 2007
NATIONAL WEATHER SERVICE: for Safety, for Work, for Fun - FOR LIFE